METAR Data
IDs: Format: Raw Decoded Include TAF

Data at: 0202 UTC 01 Mar 2021

VOBG 010130Z 00000KT 3000 HZ NSC 18/13 Q1017 NOSIG